createdAt,value
2019-02-08T00:00:10.378Z,23.02
2019-02-08T00:02:42.684Z,19.82
2019-02-08T00:05:13.041Z,21.37
2019-02-08T00:07:43.400Z,25.62
2019-02-08T00:10:14.232Z,31.77
2019-02-08T00:12:44.806Z,24.37
2019-02-08T00:15:16.352Z,23.15
2019-02-08T00:17:46.690Z,27.77
2019-02-08T00:20:17.484Z,27.85
2019-02-08T00:22:47.994Z,27.82
2019-02-08T00:25:18.546Z,22.45
2019-02-08T00:27:48.912Z,24.40
2019-02-08T00:30:21.764Z,23.90
2019-02-08T00:32:52.065Z,21.15
2019-02-08T00:35:22.726Z,23.55
2019-02-08T00:37:54.416Z,26.50
2019-02-08T00:40:25.102Z,24.23
2019-02-08T00:42:55.438Z,24.18
2019-02-08T00:45:25.749Z,26.35
2019-02-08T00:47:56.088Z,22.62
2019-02-08T00:50:26.610Z,27.73
2019-02-08T00:52:57.074Z,22.50
2019-02-08T00:55:27.346Z,25.68
2019-02-08T00:57:58.121Z,21.12
2019-02-08T01:00:28.649Z,24.35
2019-02-08T01:02:58.952Z,27.32
2019-02-08T01:05:30.778Z,25.25
2019-02-08T01:08:02.785Z,23.22
2019-02-08T01:10:33.473Z,32.80
2019-02-08T01:13:04.072Z,24.57
2019-02-08T01:15:34.796Z,30.23
2019-02-08T01:18:05.552Z,22.32
2019-02-08T01:20:36.386Z,25.08
2019-02-08T01:23:06.715Z,29.40
2019-02-08T01:25:37.044Z,29.12
2019-02-08T01:28:07.462Z,24.32
2019-02-08T01:30:37.760Z,25.75
2019-02-08T01:33:08.118Z,26.93
2019-02-08T01:35:38.780Z,22.67
2019-02-08T01:38:10.470Z,22.15
2019-02-08T01:40:40.770Z,23.83
2019-02-08T01:43:11.088Z,18.73
2019-02-08T01:45:41.424Z,23.73
2019-02-08T01:48:11.836Z,28.05
2019-02-08T01:50:42.215Z,26.57
2019-02-08T01:53:13.610Z,21.75
2019-02-08T01:55:43.956Z,21.00
2019-02-08T01:58:14.340Z,21.30
2019-02-08T02:00:45.412Z,25.48
2019-02-08T02:03:15.822Z,23.10
2019-02-08T02:05:46.178Z,22.98
2019-02-08T02:08:18.106Z,26.50
2019-02-08T02:10:48.437Z,28.38
2019-02-08T02:13:18.736Z,26.05
2019-02-08T02:15:49.128Z,20.25
2019-02-08T02:18:19.420Z,27.62
2019-02-08T02:20:49.758Z,26.75
2019-02-08T02:23:20.244Z,20.70
2019-02-08T02:25:50.554Z,25.08
2019-02-08T02:28:20.860Z,26.35
2019-02-08T02:30:51.152Z,22.73
2019-02-08T02:33:21.571Z,24.32
2019-02-08T02:35:51.869Z,27.45
2019-02-08T02:38:23.720Z,23.07
2019-02-08T02:40:54.088Z,24.12
2019-02-08T02:43:24.461Z,25.37
2019-02-08T02:45:54.806Z,25.10
2019-02-08T02:48:25.166Z,24.98
2019-02-08T02:50:55.597Z,30.25
2019-02-08T02:53:25.949Z,29.98
2019-02-08T02:55:56.272Z,25.48
2019-02-08T02:58:26.595Z,24.20
2019-02-08T03:00:57.068Z,24.00
2019-02-08T03:03:27.389Z,22.60
2019-02-08T03:05:57.766Z,24.75
2019-02-08T03:08:29.414Z,22.52
2019-02-08T03:10:59.820Z,20.17
2019-02-08T03:13:30.136Z,21.90
2019-02-08T03:16:00.486Z,24.60
2019-02-08T03:18:30.808Z,26.33
2019-02-08T03:21:01.115Z,27.10
2019-02-08T03:23:31.477Z,27.32
2019-02-08T03:26:01.815Z,27.80
2019-02-08T03:28:32.245Z,24.35
2019-02-08T03:31:02.675Z,22.10
2019-02-08T03:33:33.050Z,20.30
2019-02-08T03:36:03.374Z,24.77
2019-02-08T03:38:35.071Z,25.27
2019-02-08T03:41:05.496Z,24.75
2019-02-08T03:43:35.848Z,25.77
2019-02-08T03:46:06.494Z,27.62
2019-02-08T03:48:36.892Z,24.30
2019-02-08T03:51:07.186Z,25.23
2019-02-08T03:53:37.524Z,24.57
2019-02-08T03:56:07.827Z,22.85
2019-02-08T03:58:38.204Z,24.12
2019-02-08T04:01:09.518Z,23.27
2019-02-08T04:03:43.461Z,26.55
2019-02-08T04:06:13.777Z,22.62
2019-02-08T04:08:44.082Z,23.95
2019-02-08T04:11:15.777Z,21.52
2019-02-08T04:13:46.338Z,23.02
2019-02-08T04:16:16.702Z,27.82
2019-02-08T04:18:47.089Z,26.40
2019-02-08T04:21:17.434Z,26.42
2019-02-08T04:23:47.798Z,25.55
2019-02-08T04:26:18.102Z,22.50
2019-02-08T04:28:48.448Z,24.35
2019-02-08T04:31:18.749Z,23.27
2019-02-08T04:33:49.081Z,21.82
2019-02-08T04:36:19.435Z,26.52
2019-02-08T04:38:49.748Z,25.70
2019-02-08T04:41:21.756Z,29.00
2019-02-08T04:43:52.135Z,27.52
2019-02-08T04:46:22.424Z,22.48
2019-02-08T04:48:52.744Z,25.90
2019-02-08T04:51:23.074Z,28.30
2019-02-08T04:53:53.424Z,25.60
2019-02-08T04:56:23.782Z,24.72
2019-02-08T04:58:54.108Z,22.48
2019-02-08T05:01:24.445Z,26.82
2019-02-08T05:03:54.796Z,26.85
2019-02-08T05:06:25.191Z,26.25
2019-02-08T05:08:55.546Z,22.52
2019-02-08T05:11:26.720Z,25.90
2019-02-08T05:13:57.026Z,24.45
2019-02-08T05:16:27.363Z,28.65
2019-02-08T05:18:57.657Z,26.05
2019-02-08T05:21:28.122Z,24.67
2019-02-08T05:23:58.467Z,26.90
2019-02-08T05:26:28.814Z,22.87
2019-02-08T05:28:59.147Z,29.75
2019-02-08T05:31:38.715Z,28.65
2019-02-08T05:34:09.013Z,27.25
2019-02-08T05:36:39.352Z,26.42
2019-02-08T05:39:11.057Z,26.42
2019-02-08T05:41:42.458Z,29.42
2019-02-08T05:44:13.944Z,24.60
2019-02-08T05:46:44.373Z,26.40
2019-02-08T05:49:14.690Z,29.37
2019-02-08T05:51:45.016Z,23.05
2019-02-08T05:54:15.369Z,28.20
2019-02-08T05:56:45.743Z,27.98
2019-02-08T05:59:16.146Z,21.62
2019-02-08T06:01:46.461Z,25.85
2019-02-08T06:04:17.189Z,29.82
2019-02-08T06:06:47.528Z,27.45
2019-02-08T06:09:17.941Z,24.27
2019-02-08T06:11:48.308Z,26.95
2019-02-08T06:14:18.679Z,22.98
2019-02-08T06:16:49.034Z,27.25
2019-02-08T06:19:19.406Z,26.55
2019-02-08T06:21:49.776Z,25.05
2019-02-08T06:24:20.113Z,26.10
2019-02-08T06:26:50.512Z,20.92
2019-02-08T06:29:20.881Z,28.45
2019-02-08T06:31:51.202Z,22.82
2019-02-08T06:34:21.590Z,22.82
2019-02-08T06:36:51.938Z,25.00
2019-02-08T06:39:22.269Z,21.75
2019-02-08T06:41:52.624Z,26.07
2019-02-08T06:44:23.144Z,25.17
2019-02-08T06:46:53.524Z,24.23
2019-02-08T06:49:23.892Z,23.25
2019-02-08T06:51:54.620Z,25.95
2019-02-08T06:54:24.910Z,24.47
2019-02-08T06:57:26.546Z,25.00
2019-02-08T07:00:04.654Z,23.10
2019-02-08T07:02:58.492Z,29.48
2019-02-08T07:05:50.834Z,21.77
2019-02-08T07:08:55.182Z,25.55
2019-02-08T07:11:56.294Z,24.77
2019-02-08T07:14:58.975Z,28.45
2019-02-08T07:18:00.134Z,24.30
2019-02-08T07:20:45.622Z,23.73
2019-02-08T07:23:34.098Z,27.90
2019-02-08T07:26:26.425Z,27.15
2019-02-08T07:29:14.394Z,25.48
2019-02-08T07:32:09.434Z,24.75
2019-02-08T07:35:08.020Z,27.50
2019-02-08T07:38:06.338Z,28.75
2019-02-08T07:41:02.988Z,24.80
2019-02-08T07:43:48.630Z,25.43
2019-02-08T07:46:44.764Z,23.02
2019-02-08T07:49:34.301Z,21.97
2019-02-08T07:52:24.084Z,28.05
2019-02-08T07:55:26.198Z,25.20
2019-02-08T07:58:12.885Z,25.30
2019-02-08T08:01:06.218Z,24.80
2019-02-08T08:04:01.265Z,23.32
2019-02-08T08:06:51.120Z,23.02
2019-02-08T08:09:37.476Z,22.05
2019-02-08T08:12:26.858Z,27.32
2019-02-08T08:15:05.973Z,21.07
2019-02-08T08:18:08.585Z,27.87
2019-02-08T08:20:56.406Z,23.65
2019-02-08T08:23:46.698Z,25.50
2019-02-08T08:26:41.572Z,26.90
2019-02-08T08:29:22.826Z,28.75
2019-02-08T08:32:21.056Z,26.33
2019-02-08T08:35:07.462Z,29.48
2019-02-08T08:37:59.492Z,23.50
2019-02-08T08:41:13.702Z,29.32
2019-02-08T08:44:18.286Z,21.68
2019-02-08T08:47:31.568Z,27.13
2019-02-08T08:50:52.748Z,25.72
2019-02-08T08:54:15.985Z,25.08
2019-02-08T08:57:23.852Z,24.27
2019-02-08T09:00:44.769Z,25.95
2019-02-08T09:03:35.204Z,23.10
2019-02-08T09:06:29.246Z,23.70
2019-02-08T09:09:33.413Z,26.27
2019-02-08T09:12:26.945Z,27.57
2019-02-08T09:15:27.511Z,25.07
2019-02-08T09:18:30.553Z,28.97
2019-02-08T09:21:51.230Z,28.80
2019-02-08T09:25:03.016Z,29.17
2019-02-08T09:28:25.040Z,28.37
2019-02-08T09:31:51.916Z,29.53
2019-02-08T09:34:57.937Z,34.97
2019-02-08T09:38:12.292Z,29.20
2019-02-08T09:41:30.977Z,31.03
2019-02-08T09:44:38.168Z,29.57
2019-02-08T09:47:57.470Z,32.70
2019-02-08T09:51:24.403Z,29.17
2019-02-08T09:54:21.540Z,29.53
2019-02-08T09:57:49.612Z,29.10
2019-02-08T10:01:09.090Z,29.30
2019-02-08T10:04:45.544Z,28.13
2019-02-08T10:07:40.580Z,24.80
2019-02-08T10:10:53.811Z,28.00
2019-02-08T10:14:15.372Z,25.50
2019-02-08T10:17:21.144Z,28.80
2019-02-08T10:20:40.222Z,26.63
2019-02-08T10:23:57.258Z,27.30
2019-02-08T10:27:19.524Z,31.10
2019-02-08T10:30:25.494Z,30.73
2019-02-08T10:33:39.435Z,26.50
2019-02-08T10:36:52.285Z,26.17
2019-02-08T10:39:58.564Z,29.10
2019-02-08T10:42:53.926Z,28.30
2019-02-08T10:45:50.259Z,30.07
2019-02-08T10:48:56.012Z,30.10
2019-02-08T10:52:31.625Z,27.67
2019-02-08T10:55:51.712Z,24.47
2019-02-08T10:58:58.812Z,27.50
2019-02-08T11:02:34.469Z,26.40
2019-02-08T11:05:39.606Z,27.40
2019-02-08T11:08:52.098Z,26.87
2019-02-08T11:11:57.125Z,24.83
2019-02-08T11:15:20.320Z,22.90
2019-02-08T11:18:39.524Z,26.33
2019-02-08T11:21:09.987Z,23.90
2019-02-08T11:23:40.372Z,21.63
2019-02-08T11:26:10.736Z,27.50
2019-02-08T11:28:41.150Z,30.57
2019-02-08T11:31:11.505Z,25.37
2019-02-08T11:33:41.938Z,27.03
2019-02-08T11:36:12.389Z,22.63
2019-02-08T11:38:42.778Z,24.87
2019-02-08T11:41:13.282Z,26.40
2019-02-08T11:43:43.602Z,26.53
2019-02-08T11:46:13.999Z,26.37
2019-02-08T11:48:44.404Z,20.57
2019-02-08T11:51:14.907Z,27.73
2019-02-08T11:53:46.899Z,22.37
2019-02-08T11:56:17.273Z,21.67
2019-02-08T11:58:47.655Z,20.70
2019-02-08T12:01:17.999Z,24.80
2019-02-08T12:03:48.387Z,23.60
2019-02-08T12:06:18.773Z,25.55
2019-02-08T12:08:49.117Z,25.57
2019-02-08T12:11:19.484Z,26.40
2019-02-08T12:13:49.858Z,21.40
2019-02-08T12:16:20.188Z,22.00
2019-02-08T12:18:50.544Z,21.65
2019-02-08T12:21:21.230Z,22.07
2019-02-08T12:23:52.309Z,21.73
2019-02-08T12:26:22.644Z,21.30
2019-02-08T12:28:53.013Z,20.08
2019-02-08T12:31:23.388Z,19.90
2019-02-08T12:33:53.772Z,20.10
2019-02-08T12:36:24.112Z,22.32
2019-02-08T12:38:54.482Z,20.77
2019-02-08T12:41:24.832Z,22.50
2019-02-08T12:43:55.323Z,22.82
2019-02-08T12:46:25.676Z,20.52
2019-02-08T12:48:56.021Z,23.00
2019-02-08T12:51:26.344Z,17.55
2019-02-08T12:53:56.740Z,19.50
2019-02-08T12:56:27.209Z,20.17
2019-02-08T12:58:57.512Z,23.42
2019-02-08T13:01:27.898Z,25.70
2019-02-08T13:03:58.228Z,23.50
2019-02-08T13:06:28.698Z,24.92
2019-02-08T13:08:59.211Z,18.60
2019-02-08T13:11:31.232Z,21.45
2019-02-08T13:14:01.550Z,30.12
2019-02-08T13:16:31.934Z,25.57
2019-02-08T13:19:02.340Z,30.65
2019-02-08T13:21:32.720Z,22.25
2019-02-08T13:24:03.466Z,23.02
2019-02-08T13:26:33.801Z,22.48
2019-02-08T13:29:04.242Z,25.32
2019-02-08T13:31:34.588Z,25.82
2019-02-08T13:34:08.165Z,23.12
2019-02-08T13:36:38.538Z,30.17
2019-02-08T13:39:10.047Z,23.62
2019-02-08T13:41:41.578Z,25.17
2019-02-08T13:44:11.939Z,27.58
2019-02-08T13:46:42.362Z,21.52
2019-02-08T13:49:12.764Z,24.07
2019-02-08T13:51:43.116Z,22.20
2019-02-08T13:54:14.232Z,25.60
2019-02-08T13:56:44.594Z,29.60
2019-02-08T13:59:14.942Z,22.45
2019-02-08T14:01:45.288Z,26.82
2019-02-08T14:04:15.625Z,22.52
2019-02-08T14:06:45.996Z,23.80
2019-02-08T14:09:16.588Z,22.50
2019-02-08T14:11:46.945Z,23.50
2019-02-08T14:14:17.320Z,26.48
2019-02-08T14:16:47.754Z,24.82
2019-02-08T14:19:18.139Z,19.35
2019-02-08T14:21:48.571Z,20.68
2019-02-08T14:24:18.962Z,25.12
2019-02-08T14:26:49.434Z,26.00
2019-02-08T14:29:19.918Z,25.12
2019-02-08T14:31:50.320Z,22.45
2019-02-08T14:34:20.685Z,20.97
2019-02-08T14:36:51.281Z,20.80
2019-02-08T14:39:21.921Z,22.75
2019-02-08T14:41:52.515Z,19.37
2019-02-08T14:44:22.900Z,19.50
2019-02-08T14:46:53.220Z,20.68
2019-02-08T14:49:23.618Z,20.20
2019-02-08T14:51:54.016Z,16.25
2019-02-08T14:54:25.161Z,18.50
2019-02-08T14:56:55.458Z,24.20
2019-02-08T14:59:25.779Z,18.65
2019-02-08T15:01:56.169Z,19.02
2019-02-08T15:04:37.163Z,20.08
2019-02-08T15:07:09.165Z,18.87
2019-02-08T15:09:39.776Z,19.60
2019-02-08T15:12:10.108Z,22.75
2019-02-08T15:14:40.468Z,15.28
2019-02-08T15:17:23.935Z,18.15
2019-02-08T15:19:54.553Z,18.62
2019-02-08T15:22:24.926Z,20.00
2019-02-08T15:24:55.941Z,15.20
2019-02-08T15:27:26.357Z,14.07
2019-02-08T15:29:56.744Z,19.37
2019-02-08T15:32:27.354Z,20.82
2019-02-08T15:34:57.670Z,16.48
2019-02-08T15:37:28.012Z,19.62
2019-02-08T15:39:58.495Z,17.48
2019-02-08T15:42:28.931Z,15.88
2019-02-08T15:44:59.353Z,28.67
2019-02-08T15:47:29.816Z,19.17
2019-02-08T15:50:00.233Z,19.02
2019-02-08T15:52:30.530Z,17.95
2019-02-08T15:55:02.506Z,24.00
2019-02-08T15:57:34.016Z,17.92
2019-02-08T16:00:05.381Z,21.42
2019-02-08T16:02:35.806Z,17.17
2019-02-08T16:05:08.228Z,16.77
2019-02-08T16:07:38.588Z,16.40
2019-02-08T16:10:09.568Z,18.00
2019-02-08T16:12:39.905Z,17.92
2019-02-08T16:15:14.665Z,19.75
2019-02-08T16:17:45.090Z,21.37
2019-02-08T16:20:18.840Z,18.87
2019-02-08T16:22:49.452Z,21.30
2019-02-08T16:25:21.476Z,23.02
2019-02-08T16:27:51.862Z,19.23
2019-02-08T16:30:24.208Z,21.50
2019-02-08T16:32:54.623Z,22.75
2019-02-08T16:35:25.061Z,21.00
2019-02-08T16:37:56.390Z,21.62
2019-02-08T16:40:27.807Z,23.02
2019-02-08T16:42:58.266Z,23.35
2019-02-08T16:45:30.632Z,23.18
2019-02-08T16:48:01.928Z,18.77
2019-02-08T16:50:33.540Z,20.88
2019-02-08T16:53:04.380Z,19.87
2019-02-08T16:55:35.954Z,22.90
2019-02-08T16:58:07.278Z,19.23
2019-02-08T17:00:37.936Z,19.75
2019-02-08T17:03:10.300Z,21.85
2019-02-08T17:05:40.539Z,20.68
2019-02-08T17:08:11.190Z,22.73
2019-02-08T17:10:46.756Z,19.40
2019-02-08T17:13:17.614Z,22.27
2019-02-08T17:15:48.021Z,20.72
2019-02-08T17:18:18.354Z,17.98
2019-02-08T17:20:48.855Z,23.85
2019-02-08T17:23:19.238Z,19.25
2019-02-08T17:25:50.145Z,18.48
2019-02-08T17:28:20.494Z,20.92
2019-02-08T17:30:50.842Z,18.07
2019-02-08T17:33:21.343Z,21.68
2019-02-08T17:35:51.768Z,16.32
2019-02-08T17:38:22.151Z,20.68
2019-02-08T17:40:52.579Z,18.70
2019-02-08T17:43:22.960Z,18.67
2019-02-08T17:45:54.359Z,19.07
2019-02-08T17:48:24.777Z,23.32
2019-02-08T17:50:55.151Z,19.75
2019-02-08T17:53:25.564Z,20.82
2019-02-08T17:55:56.513Z,20.25
2019-02-08T17:58:27.420Z,18.50
2019-02-08T18:00:59.285Z,17.70
2019-02-08T18:03:29.908Z,17.80
2019-02-08T18:06:02.107Z,19.23
2019-02-08T18:08:32.432Z,14.90
2019-02-08T18:11:03.125Z,19.40
2019-02-08T18:13:33.568Z,17.35
2019-02-08T18:16:04.772Z,17.60
2019-02-08T18:18:35.124Z,15.80
2019-02-08T18:21:09.568Z,21.68
2019-02-08T18:23:40.439Z,19.23
2019-02-08T18:26:11.662Z,22.35
2019-02-08T18:28:43.148Z,18.73
2019-02-08T18:31:13.511Z,20.00
2019-02-08T18:33:43.856Z,17.67
2019-02-08T18:36:14.263Z,16.97
2019-02-08T18:38:45.177Z,21.90
2019-02-08T18:41:15.565Z,23.02
2019-02-08T18:43:45.922Z,20.20
2019-02-08T18:46:16.338Z,22.60
2019-02-08T18:48:46.716Z,23.92
2019-02-08T18:51:19.181Z,25.57
2019-02-08T18:53:49.852Z,21.40
2019-02-08T18:56:22.017Z,22.50
2019-02-08T18:58:54.126Z,18.95
2019-02-08T19:01:24.501Z,27.80
2019-02-08T19:03:54.861Z,18.50
2019-02-08T19:06:25.201Z,20.77
2019-02-08T19:08:55.546Z,20.62
2019-02-08T19:11:26.685Z,25.65
2019-02-08T19:13:57.068Z,20.75
2019-02-08T19:16:27.490Z,21.90
2019-02-08T19:18:57.855Z,17.67
2019-02-08T19:21:28.266Z,20.80
2019-02-08T19:23:58.682Z,23.30
2019-02-08T19:26:29.445Z,25.52
2019-02-08T19:29:00.534Z,28.07
2019-02-08T19:31:30.988Z,20.48
2019-02-08T19:34:01.352Z,26.65
2019-02-08T19:36:31.706Z,27.45
2019-02-08T19:39:02.113Z,23.45
2019-02-08T19:41:32.437Z,23.80
2019-02-08T19:44:02.791Z,24.95
2019-02-08T19:46:33.135Z,25.00
2019-02-08T19:49:03.480Z,19.85
2019-02-08T19:51:33.860Z,26.30
2019-02-08T19:54:04.464Z,25.50
2019-02-08T19:56:34.895Z,21.82
2019-02-08T19:59:06.888Z,24.23
2019-02-08T20:01:37.389Z,22.02
2019-02-08T20:04:07.811Z,24.95
2019-02-08T20:06:38.333Z,24.45
2019-02-08T20:18:42.862Z,25.08
2019-02-08T20:21:13.229Z,25.85
2019-02-08T20:23:43.633Z,25.05
2019-02-08T20:26:14.011Z,24.52
2019-02-08T20:28:44.412Z,22.30
2019-02-08T20:31:14.829Z,23.75
2019-02-08T20:33:45.315Z,22.05
2019-02-08T20:36:15.683Z,18.02
2019-02-08T20:38:46.432Z,22.60
2019-02-08T20:41:16.762Z,22.27
2019-02-08T20:43:47.509Z,24.15
2019-02-08T20:46:17.818Z,23.83
2019-02-08T20:48:48.155Z,25.05
2019-02-08T20:51:18.517Z,29.00
2019-02-08T20:53:48.862Z,26.57
2019-02-08T20:56:19.253Z,24.80
2019-02-08T20:58:50.535Z,30.10
2019-02-08T21:01:21.061Z,29.42
2019-02-08T21:03:51.425Z,25.70
2019-02-08T21:06:21.774Z,25.00
2019-02-08T21:08:52.171Z,26.90
2019-02-08T21:11:22.456Z,24.35
2019-02-08T21:13:52.805Z,25.05
2019-02-08T21:16:23.227Z,23.92
2019-02-08T21:18:53.591Z,24.55
2019-02-08T21:21:24.035Z,26.97
2019-02-08T21:23:54.432Z,30.82
2019-02-08T21:26:25.166Z,24.75
2019-02-08T21:28:57.916Z,28.30
2019-02-08T21:31:27.474Z,29.45
2019-02-08T21:33:57.939Z,25.72
2019-02-08T21:36:28.807Z,32.78
2019-02-08T21:39:00.117Z,27.73
2019-02-08T21:41:32.429Z,24.92
2019-02-08T21:44:02.791Z,32.67
2019-02-08T21:46:33.127Z,30.12
2019-02-08T21:49:03.537Z,30.50
2019-02-08T21:51:33.823Z,26.15
2019-02-08T21:54:05.024Z,31.45
2019-02-08T21:56:35.409Z,31.10
2019-02-08T21:59:06.595Z,30.23
2019-02-08T22:01:36.960Z,28.65
2019-02-08T22:04:08.323Z,29.00
2019-02-08T22:06:38.692Z,35.28
2019-02-08T22:09:09.686Z,30.85
2019-02-08T22:11:41.031Z,27.98
2019-02-08T22:14:11.378Z,30.57
2019-02-08T22:16:41.752Z,38.00
2019-02-08T22:19:13.082Z,36.08
2019-02-08T22:21:43.459Z,33.55
2019-02-08T22:24:13.795Z,40.12
2019-02-08T22:26:44.219Z,36.73
2019-02-08T22:29:14.581Z,32.28
2019-02-08T22:31:44.972Z,34.48
2019-02-08T22:34:15.320Z,32.88
2019-02-08T22:36:45.758Z,32.80
2019-02-08T22:39:16.160Z,34.60
2019-02-08T22:41:46.544Z,32.93
2019-02-08T22:44:16.870Z,37.83
2019-02-08T22:46:47.198Z,33.78
2019-02-08T22:49:18.803Z,40.33
2019-02-08T22:51:49.173Z,41.40
2019-02-08T22:54:20.648Z,36.95
2019-02-08T22:56:50.996Z,36.80
2019-02-08T22:59:22.296Z,36.03
2019-02-08T23:01:53.748Z,37.33
2019-02-08T23:04:24.672Z,33.23
2019-02-08T23:06:55.066Z,32.35
2019-02-08T23:09:25.572Z,33.60
2019-02-08T23:11:55.864Z,37.08
2019-02-08T23:14:26.232Z,41.33
2019-02-08T23:16:56.828Z,37.38
2019-02-08T23:19:28.042Z,39.90
2019-02-08T23:21:58.446Z,40.95
2019-02-08T23:24:28.845Z,38.17
2019-02-08T23:27:00.179Z,40.08
2019-02-08T23:29:31.573Z,36.88
2019-02-08T23:32:01.917Z,35.17
2019-02-08T23:34:32.260Z,37.30
2019-02-08T23:37:02.650Z,34.58
2019-02-08T23:39:33.048Z,35.38
2019-02-08T23:42:03.418Z,35.63
2019-02-08T23:44:34.110Z,39.65
2019-02-08T23:47:04.467Z,38.80
2019-02-08T23:49:34.925Z,33.13
2019-02-08T23:52:05.240Z,40.28
2019-02-08T23:54:35.652Z,37.03
2019-02-08T23:57:06.165Z,39.65
2019-02-08T23:59:38.061Z,40.92
